createdAt,value
2023-01-11T00:00:27.323Z,6.63
2023-01-11T00:02:57.761Z,6.07
2023-01-11T00:05:24.651Z,5.25
2023-01-11T00:07:51.323Z,5.82
2023-01-11T00:10:18.085Z,5.38
2023-01-11T00:12:45.058Z,4.65
2023-01-11T00:15:12.096Z,5.30
2023-01-11T00:17:38.684Z,4.18
2023-01-11T00:20:05.763Z,4.85
2023-01-11T00:22:32.241Z,4.20
2023-01-11T00:24:58.637Z,5.35
2023-01-11T00:27:25.069Z,4.35
2023-01-11T00:29:51.428Z,4.00
2023-01-11T00:32:17.785Z,4.45
2023-01-11T00:34:44.213Z,4.07
2023-01-11T00:37:10.693Z,4.60
2023-01-11T00:39:37.021Z,3.97
2023-01-11T00:42:21.977Z,4.72
2023-01-11T00:45:06.786Z,3.88
2023-01-11T00:50:17.976Z,4.40
2023-01-11T00:52:44.358Z,4.03
2023-01-11T00:55:10.798Z,4.07
2023-01-11T00:57:37.260Z,4.43
2023-01-11T01:00:05.070Z,4.60
2023-01-11T01:02:32.602Z,3.95
2023-01-11T01:05:00.188Z,5.30
2023-01-11T01:07:26.615Z,3.75
2023-01-11T01:09:53.006Z,4.43
2023-01-11T01:12:38.311Z,3.80
2023-01-11T01:15:05.719Z,4.30
2023-01-11T01:17:32.278Z,5.35
2023-01-11T01:19:58.717Z,5.05
2023-01-11T01:22:25.190Z,4.65
2023-01-11T01:24:51.640Z,4.43
2023-01-11T01:27:19.976Z,4.10
2023-01-11T01:29:46.891Z,3.92
2023-01-11T01:32:13.268Z,4.50
2023-01-11T01:34:39.726Z,3.90
2023-01-11T01:37:08.039Z,3.75
2023-01-11T01:39:34.467Z,3.60
2023-01-11T01:42:01.153Z,3.67
2023-01-11T01:44:55.234Z,2.50
2023-01-11T01:47:46.321Z,2.92
2023-01-11T01:50:27.197Z,3.10
2023-01-11T01:52:59.490Z,3.70
2023-01-11T01:55:31.201Z,3.45
2023-01-11T01:57:59.981Z,3.58
2023-01-11T02:00:26.356Z,3.00
2023-01-11T02:02:53.548Z,4.30
2023-01-11T02:05:20.229Z,3.65
2023-01-11T02:07:47.276Z,4.35
2023-01-11T02:10:19.137Z,3.13
2023-01-11T02:12:51.787Z,3.08
2023-01-11T02:15:21.330Z,3.88
2023-01-11T02:17:47.911Z,4.85
2023-01-11T02:20:17.358Z,4.53
2023-01-11T02:23:11.844Z,3.15
2023-01-11T02:26:18.866Z,3.90
2023-01-11T02:29:07.422Z,4.78
2023-01-11T02:31:37.020Z,4.55
2023-01-11T02:34:37.728Z,5.40
2023-01-11T02:37:11.079Z,3.40
2023-01-11T02:40:02.124Z,4.50
2023-01-11T02:43:03.621Z,4.03
2023-01-11T02:45:43.846Z,4.22
2023-01-11T02:48:26.486Z,4.10
2023-01-11T02:51:04.799Z,5.28
2023-01-11T02:53:44.445Z,4.00
2023-01-11T02:56:14.158Z,5.00
2023-01-11T02:58:44.669Z,3.47
2023-01-11T03:01:12.565Z,4.63
2023-01-11T03:03:38.955Z,3.63
2023-01-11T03:06:08.265Z,3.63
2023-01-11T03:09:05.333Z,3.15
2023-01-11T03:12:21.298Z,4.88
2023-01-11T03:14:59.554Z,5.03
2023-01-11T03:17:50.921Z,4.55
2023-01-11T03:20:27.531Z,3.03
2023-01-11T03:23:24.325Z,4.13
2023-01-11T03:26:18.476Z,4.07
2023-01-11T03:28:44.769Z,4.57
2023-01-11T03:31:23.086Z,5.35
2023-01-11T03:34:07.249Z,3.30
2023-01-11T03:36:51.904Z,3.10
2023-01-11T03:39:36.099Z,3.25
2023-01-11T03:42:06.814Z,2.97
2023-01-11T03:44:43.650Z,3.17
2023-01-11T03:47:14.969Z,2.88
2023-01-11T03:49:56.055Z,2.85
2023-01-11T03:52:28.390Z,3.38
2023-01-11T03:54:56.482Z,2.70
2023-01-11T03:57:30.203Z,2.92
2023-01-11T03:59:57.210Z,2.90
2023-01-11T04:02:41.733Z,3.17
2023-01-11T04:05:10.671Z,3.33
2023-01-11T04:07:37.478Z,3.67
2023-01-11T04:10:04.850Z,2.83
2023-01-11T04:12:31.221Z,4.88
2023-01-11T04:14:57.641Z,3.15
2023-01-11T04:17:24.041Z,3.13
2023-01-11T04:19:50.439Z,2.60
2023-01-11T04:22:16.863Z,3.30
2023-01-11T04:24:43.260Z,2.10
2023-01-11T04:27:09.750Z,3.42
2023-01-11T04:29:36.170Z,3.03
2023-01-11T04:32:03.593Z,2.75
2023-01-11T04:34:29.990Z,3.15
2023-01-11T04:36:56.414Z,2.75
2023-01-11T04:39:22.845Z,2.83
2023-01-11T04:42:07.754Z,3.17
2023-01-11T04:44:34.164Z,3.88
2023-01-11T04:47:00.613Z,2.72
2023-01-11T04:49:27.008Z,2.70
2023-01-11T04:51:53.391Z,4.50
2023-01-11T04:54:19.931Z,3.90
2023-01-11T04:56:46.330Z,3.50
2023-01-11T04:59:13.852Z,3.38
2023-01-11T05:01:40.261Z,2.85
2023-01-11T05:04:06.788Z,2.05
2023-01-11T05:06:33.304Z,3.88
2023-01-11T05:08:59.797Z,2.63
2023-01-11T05:11:26.360Z,1.85
2023-01-11T05:13:52.813Z,3.60
2023-01-11T05:16:21.885Z,2.05
2023-01-11T05:18:52.024Z,2.63
2023-01-11T05:21:21.058Z,1.90
2023-01-11T05:23:48.256Z,2.03
2023-01-11T05:26:17.873Z,3.33
2023-01-11T05:28:45.467Z,2.83
2023-01-11T05:31:12.865Z,3.60
2023-01-11T05:33:39.261Z,2.28
2023-01-11T05:36:08.601Z,2.88
2023-01-11T05:38:35.319Z,1.80
2023-01-11T05:41:07.276Z,2.28
2023-01-11T05:43:54.308Z,1.77
2023-01-11T05:46:22.031Z,2.25
2023-01-11T05:48:48.880Z,2.10
2023-01-11T05:51:15.320Z,2.15
2023-01-11T05:53:41.824Z,2.08
2023-01-11T05:56:08.446Z,1.67
2023-01-11T05:58:35.117Z,1.55
2023-01-11T06:01:01.594Z,2.35
2023-01-11T06:03:28.501Z,1.75
2023-01-11T06:05:54.950Z,1.90
2023-01-11T06:08:21.596Z,3.35
2023-01-11T06:10:55.274Z,1.70
2023-01-11T06:13:29.227Z,2.42
2023-01-11T06:16:02.897Z,1.20
2023-01-11T06:18:31.854Z,1.10
2023-01-11T06:20:58.421Z,1.50
2023-01-11T06:23:26.847Z,2.80
2023-01-11T06:25:53.250Z,2.42
2023-01-11T06:28:20.221Z,2.05
2023-01-11T06:30:53.473Z,1.63
2023-01-11T06:33:20.873Z,1.85
2023-01-11T06:35:47.488Z,1.77
2023-01-11T06:38:16.029Z,2.60
2023-01-11T06:40:43.138Z,2.40
2023-01-11T06:43:10.303Z,1.90
2023-01-11T06:45:39.623Z,2.25
2023-01-11T06:48:06.319Z,1.75
2023-01-11T06:50:32.685Z,1.85
2023-01-11T06:53:01.828Z,1.73
2023-01-11T06:55:29.620Z,2.10
2023-01-11T06:57:56.955Z,1.85
2023-01-11T07:00:23.833Z,1.65
2023-01-11T07:02:50.745Z,1.25
2023-01-11T07:05:19.375Z,2.22
2023-01-11T07:07:46.292Z,1.60
2023-01-11T07:10:15.597Z,1.73
2023-01-11T07:12:42.270Z,1.77
2023-01-11T07:15:10.208Z,1.55
2023-01-11T07:17:36.754Z,2.80
2023-01-11T07:20:05.142Z,2.10
2023-01-11T07:22:35.290Z,1.70
2023-01-11T07:25:02.952Z,3.17
2023-01-11T07:27:29.480Z,2.10
2023-01-11T07:29:56.157Z,2.53
2023-01-11T07:32:22.746Z,2.83
2023-01-11T07:34:49.134Z,1.52
2023-01-11T07:37:28.703Z,1.85
2023-01-11T07:39:55.848Z,2.55
2023-01-11T07:42:41.118Z,2.80
2023-01-11T07:45:08.216Z,2.38
2023-01-11T07:47:34.693Z,2.00
2023-01-11T07:50:01.101Z,2.33
2023-01-11T07:52:27.475Z,1.88
2023-01-11T07:54:53.903Z,1.95
2023-01-11T07:57:20.305Z,1.88
2023-01-11T07:59:46.774Z,2.42
2023-01-11T08:02:13.277Z,3.03
2023-01-11T08:04:39.659Z,1.60
2023-01-11T08:07:06.018Z,2.17
2023-01-11T08:09:32.461Z,2.45
2023-01-11T08:12:17.363Z,2.55
2023-01-11T08:17:15.581Z,3.22
2023-01-11T08:19:42.965Z,2.17
2023-01-11T08:22:09.920Z,3.05
2023-01-11T08:24:36.536Z,1.88
2023-01-11T08:27:04.175Z,2.97
2023-01-11T08:29:31.305Z,2.40
2023-01-11T08:31:59.338Z,1.85
2023-01-11T08:34:27.549Z,2.35
2023-01-11T08:36:53.987Z,2.70
2023-01-11T08:39:20.442Z,2.78
2023-01-11T08:41:46.812Z,2.28
2023-01-11T08:44:14.988Z,2.10
2023-01-11T08:46:41.556Z,2.55
2023-01-11T08:49:12.104Z,2.33
2023-01-11T08:51:40.115Z,2.35
2023-01-11T08:54:10.962Z,2.92
2023-01-11T08:56:37.670Z,3.67
2023-01-11T08:59:05.586Z,2.10
2023-01-11T09:01:33.498Z,3.42
2023-01-11T09:03:59.975Z,1.80
2023-01-11T09:06:26.731Z,1.70
2023-01-11T09:08:53.214Z,1.60
2023-01-11T09:11:38.173Z,2.75
2023-01-11T09:14:04.622Z,2.03
2023-01-11T09:16:31.155Z,2.40
2023-01-11T09:18:57.665Z,2.72
2023-01-11T09:21:24.224Z,2.33
2023-01-11T09:23:50.741Z,2.00
2023-01-11T09:26:17.238Z,2.30
2023-01-11T09:28:43.676Z,2.22
2023-01-11T09:31:10.260Z,2.22
2023-01-11T09:33:38.382Z,2.20
2023-01-11T09:36:05.558Z,2.28
2023-01-11T09:38:33.906Z,2.22
2023-01-11T09:41:26.743Z,1.65
2023-01-11T09:43:59.767Z,2.13
2023-01-11T09:46:28.357Z,2.85
2023-01-11T09:48:59.501Z,2.28
2023-01-11T09:51:34.313Z,2.72
2023-01-11T09:54:03.589Z,2.45
2023-01-11T09:56:38.953Z,2.20
2023-01-11T09:59:19.100Z,4.00
2023-01-11T10:02:18.238Z,2.50
2023-01-11T10:05:28.597Z,2.20
2023-01-11T10:18:26.165Z,2.25
2023-01-11T10:18:38.802Z,2.03
2023-01-11T10:20:47.526Z,2.05
2023-01-11T10:23:21.592Z,2.97
2023-01-11T10:25:51.717Z,1.67
2023-01-11T10:28:31.090Z,3.33
2023-01-11T10:30:58.043Z,1.80
2023-01-11T10:34:05.124Z,2.83
2023-01-11T10:37:23.388Z,2.00
2023-01-11T10:40:33.477Z,2.08
2023-01-11T10:43:14.097Z,2.22
2023-01-11T10:45:50.670Z,2.30
2023-01-11T10:48:23.814Z,2.22
2023-01-11T10:51:27.734Z,2.90
2023-01-11T10:54:16.673Z,1.92
2023-01-11T10:57:28.454Z,2.15
2023-01-11T10:59:58.101Z,2.33
2023-01-11T11:02:42.790Z,2.20
2023-01-11T11:05:28.123Z,2.10
2023-01-11T11:08:26.971Z,2.00
2023-01-11T11:10:56.589Z,3.25
2023-01-11T11:13:34.457Z,2.17
2023-01-11T11:16:04.945Z,2.13
2023-01-11T11:18:31.538Z,3.00
2023-01-11T11:21:04.196Z,2.08
2023-01-11T11:23:31.490Z,2.42
2023-01-11T11:26:01.808Z,2.95
2023-01-11T11:28:31.218Z,2.67
2023-01-11T11:31:02.442Z,2.92
2023-01-11T11:33:37.581Z,3.17
2023-01-11T11:36:07.911Z,2.60
2023-01-11T11:38:36.463Z,3.45
2023-01-11T11:41:12.894Z,2.70
2023-01-11T11:43:45.881Z,2.50
2023-01-11T11:46:19.504Z,2.70
2023-01-11T11:49:17.084Z,3.13
2023-01-11T11:51:46.940Z,2.80
2023-01-11T11:54:25.762Z,1.88
2023-01-11T11:56:53.975Z,2.05
2023-01-11T11:59:23.398Z,2.33
2023-01-11T12:02:00.369Z,3.08
2023-01-11T12:04:46.991Z,3.53
2023-01-11T12:07:16.426Z,2.70
2023-01-11T12:10:07.269Z,1.80
2023-01-11T12:12:36.626Z,2.40
2023-01-11T12:15:19.218Z,2.33
2023-01-11T12:17:46.490Z,2.20
2023-01-11T12:20:21.967Z,2.25
2023-01-11T12:23:12.516Z,3.85
2023-01-11T12:26:01.950Z,1.95
2023-01-11T12:29:00.738Z,2.58
2023-01-11T12:31:45.233Z,2.80
2023-01-11T12:34:40.605Z,2.40
2023-01-11T12:37:31.160Z,1.88
2023-01-11T12:40:18.003Z,2.70
2023-01-11T12:43:01.717Z,1.90
2023-01-11T12:45:30.880Z,2.28
2023-01-11T12:48:12.426Z,2.72
2023-01-11T12:51:16.228Z,2.65
2023-01-11T12:53:51.818Z,1.77
2023-01-11T12:56:39.397Z,2.70
2023-01-11T12:59:22.418Z,2.08
2023-01-11T13:02:19.062Z,1.77
2023-01-11T13:04:58.197Z,2.03
2023-01-11T13:07:32.100Z,3.65
2023-01-11T13:10:05.801Z,1.92
2023-01-11T13:12:45.214Z,2.00
2023-01-11T13:15:22.118Z,2.08
2023-01-11T13:18:11.068Z,3.25
2023-01-11T13:21:00.703Z,2.63
2023-01-11T13:23:39.893Z,2.30
2023-01-11T13:26:18.862Z,3.20
2023-01-11T13:28:51.520Z,2.25
2023-01-11T13:31:19.299Z,2.83
2023-01-11T13:33:52.780Z,3.47
2023-01-11T13:36:27.117Z,2.58
2023-01-11T13:39:00.480Z,3.13
2023-01-11T13:41:35.066Z,3.60
2023-01-11T13:44:13.289Z,3.90
2023-01-11T13:47:06.021Z,2.38
2023-01-11T13:49:49.294Z,2.40
2023-01-11T13:52:19.773Z,2.33
2023-01-11T13:54:56.035Z,2.10
2023-01-11T13:57:58.343Z,2.67
2023-01-11T14:00:35.090Z,3.15
2023-01-11T14:03:28.009Z,2.95
2023-01-11T14:06:18.953Z,2.83
2023-01-11T14:08:53.765Z,2.60
2023-01-11T14:11:44.635Z,2.50
2023-01-11T14:14:43.614Z,3.25
2023-01-11T14:17:28.219Z,2.67
2023-01-11T14:20:19.845Z,4.10
2023-01-11T14:23:04.179Z,3.20
2023-01-11T14:25:36.586Z,3.50
2023-01-11T14:28:26.623Z,4.32
2023-01-11T14:31:08.350Z,4.25
2023-01-11T14:33:56.327Z,4.20
2023-01-11T14:36:34.834Z,3.55
2023-01-11T14:39:17.748Z,2.97
2023-01-11T14:42:29.313Z,2.35
2023-01-11T14:45:18.702Z,2.63
2023-01-11T14:48:01.754Z,2.65
2023-01-11T14:50:41.726Z,2.38
2023-01-11T14:53:11.972Z,2.70
2023-01-11T14:55:46.350Z,3.72
2023-01-11T14:58:18.891Z,3.28
2023-01-11T15:00:45.247Z,2.65
2023-01-11T15:03:18.228Z,4.65
2023-01-11T15:05:59.820Z,2.08
2023-01-11T15:08:34.342Z,2.35
2023-01-11T15:13:49.410Z,2.40
2023-01-11T15:16:43.928Z,3.08
2023-01-11T15:19:26.960Z,3.30
2023-01-11T15:21:55.889Z,3.03
2023-01-11T15:24:26.738Z,4.03
2023-01-11T15:26:54.410Z,3.13
2023-01-11T15:29:42.851Z,3.13
2023-01-11T15:32:27.599Z,2.80
2023-01-11T15:34:54.716Z,3.67
2023-01-11T15:37:24.421Z,2.70
2023-01-11T15:39:58.839Z,4.45
2023-01-11T15:42:57.329Z,2.70
2023-01-11T15:46:20.269Z,3.88
2023-01-11T15:49:14.557Z,3.08
2023-01-11T15:51:59.233Z,3.30
2023-01-11T15:54:43.697Z,2.33
2023-01-11T15:57:20.778Z,3.88
2023-01-11T16:00:24.882Z,5.10
2023-01-11T16:02:57.267Z,3.65
2023-01-11T16:05:33.359Z,3.92
2023-01-11T16:08:18.474Z,3.15
2023-01-11T16:11:08.486Z,2.78
2023-01-11T16:13:53.076Z,3.55
2023-01-11T16:16:26.943Z,3.03
2023-01-11T16:19:17.478Z,3.88
2023-01-11T16:21:48.650Z,4.80
2023-01-11T16:24:20.318Z,2.58
2023-01-11T16:26:55.149Z,2.47
2023-01-11T16:29:25.746Z,2.72
2023-01-11T16:32:04.643Z,2.78
2023-01-11T16:34:46.058Z,2.25
2023-01-11T16:37:20.450Z,2.35
2023-01-11T16:39:51.530Z,2.92
2023-01-11T16:42:18.027Z,2.67
2023-01-11T16:44:53.048Z,2.72
2023-01-11T16:47:21.442Z,2.53
2023-01-11T16:50:09.158Z,2.88
2023-01-11T16:52:54.976Z,2.30
2023-01-11T16:55:26.986Z,2.95
2023-01-11T16:57:58.281Z,3.47
2023-01-11T17:00:35.376Z,2.90
2023-01-11T17:03:05.617Z,4.03
2023-01-11T17:05:32.369Z,3.58
2023-01-11T17:07:58.794Z,2.50
2023-01-11T17:10:28.441Z,3.08
2023-01-11T17:13:39.975Z,3.08
2023-01-11T17:16:10.536Z,2.50
2023-01-11T17:18:41.902Z,2.60
2023-01-11T17:21:20.421Z,2.88
2023-01-11T17:23:48.525Z,2.38
2023-01-11T17:26:20.659Z,3.22
2023-01-11T17:28:49.749Z,2.97
2023-01-11T17:31:22.484Z,4.10
2023-01-11T17:33:59.123Z,2.80
2023-01-11T17:36:26.147Z,3.00
2023-01-11T17:38:55.565Z,2.80
2023-01-11T17:41:40.873Z,2.70
2023-01-11T17:44:34.663Z,2.97
2023-01-11T17:47:03.213Z,3.30
2023-01-11T17:49:32.043Z,3.30
2023-01-11T17:52:08.393Z,2.72
2023-01-11T17:54:34.803Z,4.32
2023-01-11T17:57:01.948Z,4.13
2023-01-11T17:59:30.370Z,3.20
2023-01-11T18:01:59.585Z,2.33
2023-01-11T18:04:27.462Z,2.78
2023-01-11T18:06:56.182Z,3.90
2023-01-11T18:09:30.383Z,3.58
2023-01-11T18:12:22.808Z,4.43
2023-01-11T18:14:53.315Z,4.45
2023-01-11T18:17:39.437Z,3.42
2023-01-11T18:20:15.067Z,4.97
2023-01-11T18:23:23.009Z,4.47
2023-01-11T18:25:49.593Z,4.30
2023-01-11T18:28:20.821Z,3.00
2023-01-11T18:30:53.694Z,4.05
2023-01-11T18:33:22.841Z,3.38
2023-01-11T18:35:54.838Z,3.55
2023-01-11T18:38:24.976Z,2.75
2023-01-11T18:40:53.445Z,2.85
2023-01-11T18:43:25.671Z,3.22
2023-01-11T18:45:52.412Z,2.20
2023-01-11T18:48:18.857Z,3.03
2023-01-11T18:50:46.073Z,4.63
2023-01-11T18:53:14.584Z,3.22
2023-01-11T18:55:41.423Z,2.15
2023-01-11T18:58:09.674Z,2.60
2023-01-11T19:00:37.264Z,3.45
2023-01-11T19:03:04.978Z,2.65
2023-01-11T19:05:31.426Z,4.18
2023-01-11T19:07:57.794Z,3.00
2023-01-11T19:10:24.269Z,2.42
2023-01-11T19:12:50.833Z,3.50
2023-01-11T19:15:17.573Z,4.05
2023-01-11T19:17:44.024Z,3.00
2023-01-11T19:20:11.074Z,3.45
2023-01-11T19:22:37.909Z,2.85
2023-01-11T19:25:05.115Z,3.35
2023-01-11T19:27:31.546Z,3.35
2023-01-11T19:29:58.156Z,2.95
2023-01-11T19:32:25.607Z,3.10
2023-01-11T19:34:53.302Z,3.88
2023-01-11T19:37:20.663Z,3.72
2023-01-11T19:39:47.107Z,3.42
2023-01-11T19:42:13.555Z,4.78
2023-01-11T19:44:40.022Z,4.30
2023-01-11T19:47:12.399Z,3.10
2023-01-11T19:49:40.512Z,5.90
2023-01-11T19:52:13.019Z,4.18
2023-01-11T19:54:44.113Z,4.72
2023-01-11T19:57:15.720Z,4.40
2023-01-11T19:59:42.346Z,4.32
2023-01-11T20:02:11.888Z,5.55
2023-01-11T20:04:38.800Z,4.22
2023-01-11T20:07:06.415Z,4.95
2023-01-11T20:09:32.923Z,4.45
2023-01-11T20:11:59.379Z,4.45
2023-01-11T20:14:25.804Z,4.82
2023-01-11T20:16:52.265Z,3.47
2023-01-11T20:19:18.644Z,3.75
2023-01-11T20:21:45.107Z,3.50
2023-01-11T20:24:12.942Z,3.33
2023-01-11T20:26:40.141Z,3.97
2023-01-11T20:29:07.148Z,4.75
2023-01-11T20:31:35.122Z,3.67
2023-01-11T20:34:09.991Z,3.22
2023-01-11T20:36:37.385Z,2.88
2023-01-11T20:39:04.920Z,3.95
2023-01-11T20:41:49.968Z,2.63
2023-01-11T20:44:23.780Z,3.00
2023-01-11T20:46:51.986Z,2.85
2023-01-11T20:49:19.141Z,3.40
2023-01-11T20:51:46.578Z,3.55
2023-01-11T20:54:13.454Z,4.82
2023-01-11T20:56:40.853Z,3.83
2023-01-11T20:59:08.981Z,2.97
2023-01-11T21:01:37.059Z,3.30
2023-01-11T21:04:08.405Z,3.75
2023-01-11T21:06:38.310Z,3.30
2023-01-11T21:09:06.191Z,4.22
2023-01-11T21:11:33.326Z,3.65
2023-01-11T21:14:01.196Z,3.30
2023-01-11T21:16:29.256Z,3.17
2023-01-11T21:19:00.580Z,2.95
2023-01-11T21:21:29.008Z,3.85
2023-01-11T21:23:57.826Z,3.28
2023-01-11T21:26:25.561Z,3.67
2023-01-11T21:28:59.797Z,3.00
2023-01-11T21:31:28.361Z,2.83
2023-01-11T21:33:55.102Z,3.20
2023-01-11T21:36:23.410Z,3.45
2023-01-11T21:38:49.878Z,2.92
2023-01-11T21:41:19.553Z,3.50
2023-01-11T21:43:46.001Z,2.47
2023-01-11T21:46:12.944Z,3.25
2023-01-11T21:48:39.614Z,3.42
2023-01-11T21:51:09.942Z,2.80
2023-01-11T21:53:36.605Z,2.85
2023-01-11T21:56:08.014Z,2.60
2023-01-11T21:58:35.204Z,3.38
2023-01-11T22:01:11.167Z,4.13
2023-01-11T22:03:37.783Z,2.85
2023-01-11T22:06:04.941Z,5.30
2023-01-11T22:08:34.668Z,3.30
2023-01-11T22:11:04.034Z,3.10
2023-01-11T22:13:32.362Z,2.67
2023-01-11T22:16:03.433Z,2.88
2023-01-11T22:18:30.420Z,3.60
2023-01-11T22:20:56.853Z,4.03
2023-01-11T22:23:23.620Z,2.88
2023-01-11T22:25:50.020Z,3.50
2023-01-11T22:28:17.238Z,2.63
2023-01-11T22:30:43.693Z,4.00
2023-01-11T22:33:10.089Z,3.78
2023-01-11T22:35:36.461Z,3.72
2023-01-11T22:38:02.931Z,3.40
2023-01-11T22:40:29.338Z,2.42
2023-01-11T22:42:55.811Z,3.08
2023-01-11T22:45:22.174Z,3.17
2023-01-11T22:47:48.735Z,2.78
2023-01-11T22:50:15.538Z,3.60
2023-01-11T22:52:42.002Z,2.97
2023-01-11T22:55:08.781Z,2.47
2023-01-11T22:57:35.219Z,3.30
2023-01-11T23:00:04.555Z,2.08
2023-01-11T23:02:31.033Z,2.40
2023-01-11T23:04:57.436Z,2.83
2023-01-11T23:07:23.821Z,2.42
2023-01-11T23:09:50.229Z,3.20
2023-01-11T23:12:45.639Z,2.78
2023-01-11T23:15:12.109Z,2.53
2023-01-11T23:17:38.569Z,2.22
2023-01-11T23:20:05.738Z,1.90
2023-01-11T23:22:32.152Z,2.00
2023-01-11T23:24:58.563Z,2.10
2023-01-11T23:27:24.974Z,2.05
2023-01-11T23:29:51.387Z,2.10
2023-01-11T23:32:17.751Z,3.08
2023-01-11T23:34:44.143Z,2.33
2023-01-11T23:37:10.617Z,3.35
2023-01-11T23:39:37.020Z,2.10
2023-01-11T23:42:22.084Z,2.20
2023-01-11T23:44:48.919Z,2.53
2023-01-11T23:47:21.578Z,3.58
2023-01-11T23:49:49.550Z,3.85
2023-01-11T23:52:17.208Z,3.20
2023-01-11T23:54:45.547Z,2.17
2023-01-11T23:57:13.492Z,2.70
2023-01-11T23:59:41.540Z,2.63
